createdAt,value
2023-03-17T00:01:17.295Z,25.34
2023-03-17T00:05:17.325Z,25.35
2023-03-17T00:09:17.316Z,25.32
2023-03-17T00:13:17.366Z,25.30
2023-03-17T00:17:17.380Z,25.32
2023-03-17T00:21:17.391Z,25.30
2023-03-17T00:25:17.368Z,25.27
2023-03-17T00:29:17.356Z,25.31
2023-03-17T00:33:17.432Z,25.28
2023-03-17T00:37:17.465Z,25.30
2023-03-17T00:41:17.454Z,25.28
2023-03-17T00:45:17.485Z,25.27
2023-03-17T00:49:18.576Z,25.25
2023-03-17T00:53:17.552Z,25.24
2023-03-17T00:57:17.579Z,25.24
2023-03-17T01:01:17.579Z,25.24
2023-03-17T01:05:17.620Z,25.24
2023-03-17T01:09:17.670Z,25.22
2023-03-17T01:13:17.679Z,25.22
2023-03-17T01:17:17.719Z,25.22
2023-03-17T01:21:17.798Z,25.24
2023-03-17T01:25:17.881Z,25.20
2023-03-17T01:29:17.884Z,25.21
2023-03-17T01:33:18.001Z,25.21
2023-03-17T01:37:18.073Z,25.18
2023-03-17T01:41:18.172Z,25.18
2023-03-17T01:45:18.220Z,25.20
2023-03-17T01:49:18.276Z,25.18
2023-03-17T01:53:18.363Z,25.18
2023-03-17T01:57:18.425Z,25.18
2023-03-17T02:01:18.561Z,25.15
2023-03-17T02:05:18.644Z,25.15
2023-03-17T02:09:18.674Z,25.15
2023-03-17T02:13:18.786Z,25.14
2023-03-17T02:17:18.860Z,25.14
2023-03-17T02:21:18.957Z,25.15
2023-03-17T02:25:19.055Z,25.13
2023-03-17T02:29:19.158Z,25.13
2023-03-17T02:33:19.271Z,25.11
2023-03-17T02:37:19.384Z,25.13
2023-03-17T02:41:19.528Z,25.09
2023-03-17T02:45:19.544Z,25.10
2023-03-17T02:49:19.601Z,25.11
2023-03-17T02:53:19.727Z,25.11
2023-03-17T02:57:19.836Z,25.10
2023-03-17T03:01:19.954Z,25.07
2023-03-17T03:05:20.084Z,25.10
2023-03-17T03:09:20.109Z,25.09
2023-03-17T03:13:20.255Z,25.07
2023-03-17T03:17:20.373Z,25.07
2023-03-17T03:21:20.520Z,25.09
2023-03-17T03:25:20.565Z,25.07
2023-03-17T03:29:20.779Z,25.07
2023-03-17T03:33:20.862Z,25.06
2023-03-17T03:37:21.543Z,25.06
2023-03-17T03:41:21.078Z,25.04
2023-03-17T03:45:21.218Z,25.07
2023-03-17T03:49:21.320Z,25.06
2023-03-17T03:53:21.465Z,25.04
2023-03-17T03:57:21.633Z,25.03
2023-03-17T04:01:21.699Z,25.04
2023-03-17T04:05:21.886Z,25.03
2023-03-17T04:09:22.027Z,25.03
2023-03-17T04:13:22.078Z,25.01
2023-03-17T04:17:22.172Z,25.01
2023-03-17T04:21:22.284Z,24.98
2023-03-17T04:25:22.448Z,25.01
2023-03-17T04:29:22.561Z,24.98
2023-03-17T04:33:22.701Z,24.98
2023-03-17T04:37:22.799Z,25.00
2023-03-17T04:41:22.992Z,25.00
2023-03-17T04:45:23.189Z,24.98
2023-03-17T04:49:23.318Z,24.97
2023-03-17T04:53:23.458Z,24.97
2023-03-17T04:57:23.615Z,24.98
2023-03-17T05:01:23.827Z,24.94
2023-03-17T05:05:23.892Z,24.94
2023-03-17T05:09:24.106Z,24.94
2023-03-17T05:13:24.232Z,24.95
2023-03-17T05:17:24.437Z,24.95
2023-03-17T05:21:24.557Z,24.93
2023-03-17T05:25:24.820Z,24.95
2023-03-17T05:29:24.917Z,24.94
2023-03-17T05:33:25.099Z,24.95
2023-03-17T05:37:25.319Z,24.94
2023-03-17T05:41:25.400Z,24.94
2023-03-17T05:45:25.597Z,24.94
2023-03-17T05:49:25.770Z,24.97
2023-03-17T05:53:25.901Z,24.95
2023-03-17T05:57:26.142Z,24.93
2023-03-17T06:01:26.329Z,24.95
2023-03-17T06:05:26.448Z,24.93
2023-03-17T06:09:26.621Z,24.97
2023-03-17T06:13:26.802Z,24.95
2023-03-17T06:17:26.995Z,24.97
2023-03-17T06:21:27.126Z,24.97
2023-03-17T06:25:27.353Z,24.98
2023-03-17T06:29:27.437Z,24.98
2023-03-17T06:33:27.610Z,24.95
2023-03-17T06:37:27.751Z,24.63
2023-03-17T06:41:27.706Z,23.54
2023-03-17T06:45:27.857Z,23.73
2023-03-17T06:49:27.945Z,24.16
2023-03-17T06:53:28.060Z,24.59
2023-03-17T06:57:28.246Z,24.87
2023-03-17T07:01:28.322Z,25.13
2023-03-17T07:05:28.287Z,25.24
2023-03-17T07:09:28.375Z,25.24
2023-03-17T07:13:28.413Z,25.18
2023-03-17T07:17:28.533Z,25.11
2023-03-17T07:21:28.675Z,25.09
2023-03-17T07:25:29.642Z,25.01
2023-03-17T07:29:29.020Z,24.98
2023-03-17T07:33:29.251Z,24.97
2023-03-17T07:37:30.212Z,24.98
2023-03-17T07:41:29.602Z,25.00
2023-03-17T07:45:30.101Z,25.00
2023-03-17T07:49:40.688Z,25.04
2023-03-17T07:53:30.825Z,25.06
2023-03-17T07:57:29.958Z,25.07
2023-03-17T08:01:30.094Z,25.10
2023-03-17T08:05:30.688Z,25.11
2023-03-17T08:09:30.246Z,25.17
2023-03-17T08:13:30.374Z,25.20
2023-03-17T08:17:30.504Z,25.22
2023-03-17T08:21:30.499Z,25.22
2023-03-17T08:25:30.822Z,25.30
2023-03-17T08:29:30.678Z,25.30
2023-03-17T08:33:30.708Z,25.35
2023-03-17T08:37:37.718Z,25.38
2023-03-17T08:41:30.750Z,25.40
2023-03-17T08:45:32.228Z,25.41
2023-03-17T08:49:30.885Z,25.42
2023-03-17T08:53:30.618Z,25.42
2023-03-17T08:57:30.587Z,25.44
2023-03-17T09:01:30.545Z,25.44
2023-03-17T09:05:30.645Z,25.46
2023-03-17T09:09:31.845Z,25.48
2023-03-17T09:13:30.433Z,25.49
2023-03-17T09:17:30.312Z,25.48
2023-03-17T09:21:30.336Z,25.52
2023-03-17T09:25:30.269Z,25.51
2023-03-17T09:29:30.246Z,25.54
2023-03-17T09:33:30.206Z,25.54
2023-03-17T09:37:30.198Z,25.55
2023-03-17T09:41:30.119Z,25.60
2023-03-17T09:45:30.215Z,25.61
2023-03-17T09:49:29.987Z,25.64
2023-03-17T09:53:30.056Z,25.65
2023-03-17T09:57:30.177Z,25.69
2023-03-17T10:01:30.286Z,25.68
2023-03-17T10:05:30.711Z,25.71
2023-03-17T10:09:31.335Z,25.71
2023-03-17T10:13:31.252Z,25.72
2023-03-17T10:17:30.246Z,25.74
2023-03-17T10:21:30.246Z,25.74
2023-03-17T10:25:30.479Z,25.75
2023-03-17T10:29:30.125Z,25.75
2023-03-17T10:33:30.390Z,25.78
2023-03-17T10:37:30.230Z,25.78
2023-03-17T10:41:30.204Z,25.85
2023-03-17T10:45:30.200Z,25.99
2023-03-17T10:49:30.163Z,26.15
2023-03-17T10:53:30.129Z,26.23
2023-03-17T10:57:30.071Z,26.39
2023-03-17T11:01:30.041Z,26.59
2023-03-17T11:05:29.979Z,26.77
2023-03-17T11:09:30.687Z,26.90
2023-03-17T11:13:29.933Z,26.97
2023-03-17T11:17:29.867Z,27.15
2023-03-17T11:21:29.912Z,27.20
2023-03-17T11:25:29.776Z,27.01
2023-03-17T11:29:29.736Z,26.97
2023-03-17T11:33:29.743Z,26.95
2023-03-17T11:37:30.238Z,26.90
2023-03-17T11:41:29.902Z,26.94
2023-03-17T11:45:30.049Z,26.87
2023-03-17T11:49:30.114Z,26.82
2023-03-17T11:53:30.203Z,26.83
2023-03-17T11:57:30.345Z,26.82
2023-03-17T12:01:30.341Z,26.70
2023-03-17T12:05:30.592Z,26.62
2023-03-17T12:09:30.864Z,26.57
2023-03-17T12:13:30.733Z,26.54
2023-03-17T12:17:31.454Z,26.59
2023-03-17T12:21:30.661Z,26.73
2023-03-17T12:25:30.694Z,26.79
2023-03-17T12:29:30.576Z,26.80
2023-03-17T12:33:30.562Z,26.79
2023-03-17T12:37:30.500Z,26.83
2023-03-17T12:41:30.462Z,26.82
2023-03-17T12:45:30.719Z,26.79
2023-03-17T12:49:30.416Z,26.79
2023-03-17T12:53:30.446Z,26.77
2023-03-17T12:57:30.439Z,26.74
2023-03-17T13:01:30.585Z,26.74
2023-03-17T13:05:31.003Z,26.76
2023-03-17T13:09:31.698Z,26.74
2023-03-17T13:13:30.833Z,26.76
2023-03-17T13:17:31.316Z,26.76
2023-03-17T13:21:34.048Z,26.76
2023-03-17T13:25:31.126Z,26.79
2023-03-17T13:29:30.922Z,26.82
2023-03-17T13:33:30.921Z,26.83
2023-03-17T13:37:30.856Z,26.84
2023-03-17T13:41:30.765Z,26.87
2023-03-17T13:45:31.051Z,26.89
2023-03-17T13:49:30.806Z,26.93
2023-03-17T13:53:30.798Z,26.90
2023-03-17T13:57:30.748Z,26.93
2023-03-17T14:01:30.756Z,26.91
2023-03-17T14:05:31.000Z,26.93
2023-03-17T14:09:30.650Z,27.00
2023-03-17T14:13:30.609Z,26.95
2023-03-17T14:17:30.552Z,27.00
2023-03-17T14:21:30.531Z,27.03
2023-03-17T14:25:30.898Z,27.01
2023-03-17T14:29:30.425Z,26.98
2023-03-17T14:33:30.587Z,27.07
2023-03-17T14:37:30.729Z,27.17
2023-03-17T14:41:32.837Z,27.15
2023-03-17T14:45:31.324Z,27.21
2023-03-17T14:49:30.757Z,27.25
2023-03-17T14:53:30.720Z,27.31
2023-03-17T14:57:30.662Z,27.30
2023-03-17T15:01:30.744Z,27.37
2023-03-17T15:05:30.936Z,27.38
2023-03-17T15:09:30.543Z,27.38
2023-03-17T15:13:30.528Z,27.38
2023-03-17T15:17:30.463Z,27.38
2023-03-17T15:21:30.458Z,27.45
2023-03-17T15:25:30.417Z,27.44
2023-03-17T15:29:30.605Z,27.44
2023-03-17T15:33:30.767Z,27.41
2023-03-17T15:37:30.950Z,27.37
2023-03-17T15:41:31.188Z,27.33
2023-03-17T15:45:31.127Z,27.24
2023-03-17T15:49:31.063Z,27.27
2023-03-17T15:53:31.091Z,27.27
2023-03-17T15:57:31.011Z,27.28
2023-03-17T16:01:31.069Z,27.31
2023-03-17T16:05:30.959Z,27.28
2023-03-17T16:09:30.909Z,27.24
2023-03-17T16:13:30.838Z,27.20
2023-03-17T16:17:30.836Z,27.15
2023-03-17T16:21:30.763Z,27.13
2023-03-17T16:25:30.799Z,27.08
2023-03-17T16:29:30.685Z,27.10
2023-03-17T16:33:30.691Z,27.05
2023-03-17T16:37:30.637Z,27.03
2023-03-17T16:41:30.685Z,27.04
2023-03-17T16:45:30.688Z,27.00
2023-03-17T16:49:30.776Z,27.00
2023-03-17T16:53:30.925Z,26.95
2023-03-17T16:57:30.943Z,26.94
2023-03-17T17:01:31.084Z,26.86
2023-03-17T17:05:31.207Z,26.84
2023-03-17T17:09:31.430Z,26.80
2023-03-17T17:13:31.537Z,26.83
2023-03-17T17:17:31.731Z,26.80
2023-03-17T17:21:31.962Z,26.79
2023-03-17T17:25:32.382Z,26.77
2023-03-17T17:29:32.592Z,26.77
2023-03-17T17:33:32.285Z,26.77
2023-03-17T17:37:32.246Z,26.76
2023-03-17T17:41:32.683Z,26.76
2023-03-17T17:45:32.132Z,26.74
2023-03-17T17:49:32.120Z,26.72
2023-03-17T17:53:32.140Z,26.73
2023-03-17T17:57:32.064Z,26.72
2023-03-17T18:01:32.070Z,26.72
2023-03-17T18:05:32.012Z,26.67
2023-03-17T18:09:32.091Z,26.69
2023-03-17T18:13:31.947Z,26.69
2023-03-17T18:17:32.589Z,26.67
2023-03-17T18:21:31.810Z,26.66
2023-03-17T18:25:31.825Z,26.67
2023-03-17T18:29:31.891Z,26.69
2023-03-17T18:33:31.965Z,26.64
2023-03-17T18:37:32.045Z,26.64
2023-03-17T18:41:32.101Z,26.64
2023-03-17T18:45:32.190Z,26.64
2023-03-17T18:49:32.281Z,26.62
2023-03-17T18:53:32.343Z,26.62
2023-03-17T18:57:32.335Z,26.62
2023-03-17T19:01:32.387Z,26.60
2023-03-17T19:05:32.363Z,26.59
2023-03-17T19:09:32.359Z,26.57
2023-03-17T19:13:32.332Z,26.54
2023-03-17T19:17:32.293Z,26.54
2023-03-17T19:21:32.290Z,26.52
2023-03-17T19:25:32.243Z,26.52
2023-03-17T19:29:32.250Z,26.50
2023-03-17T19:33:32.242Z,26.50
2023-03-17T19:37:32.280Z,26.47
2023-03-17T19:41:32.366Z,26.46
2023-03-17T19:45:32.340Z,26.44
2023-03-17T19:49:32.383Z,26.43
2023-03-17T19:53:32.445Z,26.43
2023-03-17T19:57:32.462Z,26.39
2023-03-17T20:01:32.696Z,26.40
2023-03-17T20:05:32.531Z,26.38
2023-03-17T20:09:32.616Z,26.33
2023-03-17T20:13:32.702Z,26.32
2023-03-17T20:17:32.695Z,26.33
2023-03-17T20:21:32.722Z,26.30
2023-03-17T20:25:32.826Z,26.30
2023-03-17T20:29:32.898Z,26.29
2023-03-17T20:33:32.938Z,26.33
2023-03-17T20:37:33.124Z,26.32
2023-03-17T20:41:33.135Z,26.35
2023-03-17T20:45:33.276Z,26.30
2023-03-17T20:49:33.350Z,26.32
2023-03-17T20:53:33.433Z,26.29
2023-03-17T20:57:33.458Z,26.29
2023-03-17T21:01:33.720Z,26.29
2023-03-17T21:05:33.713Z,26.29
2023-03-17T21:09:33.808Z,26.26
2023-03-17T21:13:33.869Z,26.28
2023-03-17T21:17:33.950Z,26.26
2023-03-17T21:21:34.060Z,26.25
2023-03-17T21:25:34.152Z,26.25
2023-03-17T21:29:34.248Z,26.22
2023-03-17T21:33:34.346Z,26.22
2023-03-17T21:37:34.442Z,26.20
2023-03-17T21:41:34.573Z,26.22
2023-03-17T21:45:34.663Z,26.19
2023-03-17T21:49:34.770Z,26.18
2023-03-17T21:53:34.894Z,26.18
2023-03-17T21:57:35.013Z,26.16
2023-03-17T22:01:35.331Z,26.16
2023-03-17T22:05:35.373Z,26.15
2023-03-17T22:09:35.479Z,26.13
2023-03-17T22:13:35.602Z,26.10
2023-03-17T22:17:35.751Z,26.09
2023-03-17T22:21:35.864Z,26.08
2023-03-17T22:25:36.084Z,26.06
2023-03-17T22:29:36.180Z,26.08
2023-03-17T22:33:36.368Z,26.08
2023-03-17T22:37:36.495Z,26.06
2023-03-17T22:41:36.693Z,26.05
2023-03-17T22:45:36.889Z,26.03
2023-03-17T22:49:36.973Z,25.99
2023-03-17T22:53:37.123Z,26.02
2023-03-17T22:57:37.341Z,26.00
2023-03-17T23:01:37.534Z,25.98
2023-03-17T23:05:37.703Z,25.96
2023-03-17T23:09:37.889Z,25.93
2023-03-17T23:13:38.061Z,25.96
2023-03-17T23:17:38.298Z,25.95
2023-03-17T23:21:38.492Z,25.95
2023-03-17T23:25:38.658Z,25.92
2023-03-17T23:29:38.850Z,25.92
2023-03-17T23:33:39.032Z,25.91
2023-03-17T23:37:39.207Z,25.91
2023-03-17T23:41:39.380Z,25.91
2023-03-17T23:45:39.569Z,25.88
2023-03-17T23:49:39.744Z,25.89
2023-03-17T23:53:39.927Z,25.85
2023-03-17T23:57:40.126Z,25.86
